sensor_id;sensor_type;location;lat;lon;timestamp;pressure;altitude;pressure_sealevel;temperature;humidity
35918;BME280;22011;59.912;30.300;2023-06-26T00:01:15;101480.19;;;19.51;67.32
35918;BME280;22011;59.912;30.300;2023-06-26T00:03:43;101477.69;;;19.49;66.86
35918;BME280;22011;59.912;30.300;2023-06-26T00:06:10;101479.75;;;19.47;66.65
35918;BME280;22011;59.912;30.300;2023-06-26T00:08:38;101471.44;;;19.42;66.43
35918;BME280;22011;59.912;30.300;2023-06-26T00:11:05;101487.44;;;19.44;66.69
35918;BME280;22011;59.912;30.300;2023-06-26T00:13:34;101488.50;;;19.43;66.42
35918;BME280;22011;59.912;30.300;2023-06-26T00:16:01;101485.78;;;19.43;66.17
35918;BME280;22011;59.912;30.300;2023-06-26T00:18:30;101476.63;;;19.44;66.50
35918;BME280;22011;59.912;30.300;2023-06-26T00:20:58;101469.78;;;19.41;66.16
35918;BME280;22011;59.912;30.300;2023-06-26T00:23:25;101478.72;;;19.42;66.63
35918;BME280;22011;59.912;30.300;2023-06-26T00:25:53;101478.72;;;19.42;65.72
35918;BME280;22011;59.912;30.300;2023-06-26T00:28:21;101477.06;;;19.41;65.32
35918;BME280;22011;59.912;30.300;2023-06-26T00:30:48;101469.97;;;19.40;65.88
35918;BME280;22011;59.912;30.300;2023-06-26T00:33:16;101472.25;;;19.36;66.09
35918;BME280;22011;59.912;30.300;2023-06-26T00:35:45;101480.56;;;19.35;66.73
35918;BME280;22011;59.912;30.300;2023-06-26T00:38:12;101478.06;;;19.33;67.78
35918;BME280;22011;59.912;30.300;2023-06-26T00:40:40;101480.97;;;19.32;67.75
35918;BME280;22011;59.912;30.300;2023-06-26T00:43:07;101480.97;;;19.32;67.95
35918;BME280;22011;59.912;30.300;2023-06-26T00:45:35;101481.59;;;19.27;68.08
35918;BME280;22011;59.912;30.300;2023-06-26T00:48:03;101480.56;;;19.28;68.85
35918;BME280;22011;59.912;30.300;2023-06-26T00:50:31;101478.06;;;19.26;68.58
35918;BME280;22011;59.912;30.300;2023-06-26T00:53:00;101478.06;;;19.26;70.19
35918;BME280;22011;59.912;30.300;2023-06-26T00:55:27;101472.66;;;19.20;69.16
35918;BME280;22011;59.912;30.300;2023-06-26T00:57:56;101474.94;;;19.16;69.42
35918;BME280;22011;59.912;30.300;2023-06-26T01:00:24;101479.28;;;19.17;69.32
35918;BME280;22011;59.912;30.300;2023-06-26T01:02:51;101470.16;;;19.18;69.43
35918;BME280;22011;59.912;30.300;2023-06-26T01:05:20;101473.88;;;19.17;69.78
35918;BME280;22011;59.912;30.300;2023-06-26T01:07:49;101477.63;;;19.16;69.45
35918;BME280;22011;59.912;30.300;2023-06-26T01:10:19;101473.88;;;19.17;69.16
35918;BME280;22011;59.912;30.300;2023-06-26T01:12:47;101470.97;;;19.12;69.00
35918;BME280;22011;59.912;30.300;2023-06-26T01:15:14;101472.63;;;19.13;69.02
35918;BME280;22011;59.912;30.300;2023-06-26T01:17:42;101467.22;;;19.13;68.50
35918;BME280;22011;59.912;30.300;2023-06-26T01:20:14;101469.72;;;19.15;68.47
35918;BME280;22011;59.912;30.300;2023-06-26T01:22:47;101473.91;;;19.24;68.54
35918;BME280;22011;59.912;30.300;2023-06-26T01:25:23;101473.28;;;19.28;68.69
35918;BME280;22011;59.912;30.300;2023-06-26T01:27:58;101460.19;;;19.25;68.36
35918;BME280;22011;59.912;30.300;2023-06-26T01:30:26;101466.00;;;19.29;67.73
35918;BME280;22011;59.912;30.300;2023-06-26T01:32:55;101462.28;;;19.37;67.43
35918;BME280;22011;59.912;30.300;2023-06-26T01:35:23;101465.63;;;19.39;67.00
35918;BME280;22011;59.912;30.300;2023-06-26T01:37:51;101458.97;;;19.35;66.77
35918;BME280;22011;59.912;30.300;2023-06-26T01:40:18;101463.94;;;19.31;67.08
35918;BME280;22011;59.912;30.300;2023-06-26T01:42:46;101456.03;;;19.30;67.60
35918;BME280;22011;59.912;30.300;2023-06-26T01:45:22;101456.47;;;19.40;68.25
35918;BME280;22011;59.912;30.300;2023-06-26T01:47:52;101456.66;;;19.32;67.54
35918;BME280;22011;59.912;30.300;2023-06-26T01:50:22;101449.41;;;19.32;67.03
35918;BME280;22011;59.912;30.300;2023-06-26T01:52:59;101463.53;;;19.41;67.30
35918;BME280;22011;59.912;30.300;2023-06-26T01:55:32;101463.94;;;19.38;66.72
35918;BME280;22011;59.912;30.300;2023-06-26T01:58:03;101455.00;;;19.37;66.08
35918;BME280;22011;59.912;30.300;2023-06-26T02:00:32;101464.78;;;19.45;66.53
35918;BME280;22011;59.912;30.300;2023-06-26T02:03:00;101457.72;;;19.44;65.55
35918;BME280;22011;59.912;30.300;2023-06-26T02:05:28;101456.88;;;19.43;65.66
35918;BME280;22011;59.912;30.300;2023-06-26T02:07:58;101450.25;;;19.46;65.26
35918;BME280;22011;59.912;30.300;2023-06-26T02:10:30;101449.81;;;19.49;65.08
35918;BME280;22011;59.912;30.300;2023-06-26T02:12:57;101449.44;;;19.52;64.70
35918;BME280;22011;59.912;30.300;2023-06-26T02:15:25;101450.91;;;19.54;64.30
35918;BME280;22011;59.912;30.300;2023-06-26T02:17:55;101461.72;;;19.61;64.01
35918;BME280;22011;59.912;30.300;2023-06-26T02:20:22;101457.56;;;19.65;63.54
35918;BME280;22011;59.912;30.300;2023-06-26T02:22:50;101460.88;;;19.67;62.88
35918;BME280;22011;59.912;30.300;2023-06-26T02:25:17;101455.28;;;19.75;62.84
35918;BME280;22011;59.912;30.300;2023-06-26T02:27:45;101446.97;;;19.70;62.32
35918;BME280;22011;59.912;30.300;2023-06-26T02:30:12;101452.78;;;19.67;62.25
35918;BME280;22011;59.912;30.300;2023-06-26T02:32:40;101452.78;;;19.67;62.22
35918;BME280;22011;59.912;30.300;2023-06-26T02:35:09;101453.59;;;19.68;62.20
35918;BME280;22011;59.912;30.300;2023-06-26T02:37:41;101453.59;;;19.68;61.63
35918;BME280;22011;59.912;30.300;2023-06-26T02:40:10;101462.75;;;19.67;62.04
35918;BME280;22011;59.912;30.300;2023-06-26T02:42:38;101448.41;;;19.66;61.86
35918;BME280;22011;59.912;30.300;2023-06-26T02:45:07;101456.31;;;19.68;61.77
35918;BME280;22011;59.912;30.300;2023-06-26T02:47:35;101456.53;;;19.66;61.20
35918;BME280;22011;59.912;30.300;2023-06-26T02:50:06;101463.19;;;19.64;61.17
35918;BME280;22011;59.912;30.300;2023-06-26T02:52:54;101466.50;;;19.66;61.53
35918;BME280;22011;59.912;30.300;2023-06-26T02:55:22;101465.88;;;19.64;61.19
35918;BME280;22011;59.912;30.300;2023-06-26T02:57:52;101459.84;;;19.62;61.08
35918;BME280;22011;59.912;30.300;2023-06-26T03:00:20;101458.41;;;19.66;61.36
35918;BME280;22011;59.912;30.300;2023-06-26T03:02:50;101464.63;;;19.66;61.48
35918;BME280;22011;59.912;30.300;2023-06-26T03:05:19;101460.88;;;19.67;61.52
35918;BME280;22011;59.912;30.300;2023-06-26T03:07:47;101459.84;;;19.68;61.42
35918;BME280;22011;59.912;30.300;2023-06-26T03:10:16;101462.56;;;19.75;61.98
35918;BME280;22011;59.912;30.300;2023-06-26T03:12:44;101456.53;;;19.73;61.94
35918;BME280;22011;59.912;30.300;2023-06-26T03:15:11;101451.50;;;19.76;62.26
35918;BME280;22011;59.912;30.300;2023-06-26T03:17:39;101445.28;;;19.76;62.19
35918;BME280;22011;59.912;30.300;2023-06-26T03:20:11;101452.75;;;19.80;61.80
35918;BME280;22011;59.912;30.300;2023-06-26T03:22:51;101449.41;;;19.85;61.64
35918;BME280;22011;59.912;30.300;2023-06-26T03:25:22;101451.06;;;19.86;62.71
35918;BME280;22011;59.912;30.300;2023-06-26T03:27:55;101451.06;;;19.92;61.53
35918;BME280;22011;59.912;30.300;2023-06-26T03:30:24;101450.66;;;19.96;61.48
35918;BME280;22011;59.912;30.300;2023-06-26T03:32:54;101449.81;;;20.02;61.16
35918;BME280;22011;59.912;30.300;2023-06-26T03:35:22;101452.72;;;20.00;61.13
35918;BME280;22011;59.912;30.300;2023-06-26T03:37:50;101454.81;;;19.98;61.98
35918;BME280;22011;59.912;30.300;2023-06-26T03:40:18;101447.94;;;19.96;62.25
35918;BME280;22011;59.912;30.300;2023-06-26T03:42:47;101452.31;;;19.97;62.83
35918;BME280;22011;59.912;30.300;2023-06-26T03:45:14;101450.22;;;19.99;62.43
35918;BME280;22011;59.912;30.300;2023-06-26T03:47:43;101448.16;;;20.01;62.28
35918;BME280;22011;59.912;30.300;2023-06-26T03:50:14;101446.06;;;20.03;62.37
35918;BME280;22011;59.912;30.300;2023-06-26T03:52:41;101445.84;;;20.11;62.64
35918;BME280;22011;59.912;30.300;2023-06-26T03:55:12;101448.75;;;20.16;62.54
35918;BME280;22011;59.912;30.300;2023-06-26T03:57:40;101445.41;;;20.20;62.19
35918;BME280;22011;59.912;30.300;2023-06-26T04:00:12;101458.50;;;20.30;62.76
35918;BME280;22011;59.912;30.300;2023-06-26T04:02:43;101446.00;;;20.29;62.68
35918;BME280;22011;59.912;30.300;2023-06-26T04:05:12;101447.84;;;20.35;62.72
35918;BME280;22011;59.912;30.300;2023-06-26T04:07:40;101450.34;;;20.37;63.75
35918;BME280;22011;59.912;30.300;2023-06-26T04:10:09;101450.16;;;20.45;62.92
35918;BME280;22011;59.912;30.300;2023-06-26T04:12:36;101442.00;;;20.51;62.33
35918;BME280;22011;59.912;30.300;2023-06-26T04:15:05;101448.03;;;20.53;63.48
35918;BME280;22011;59.912;30.300;2023-06-26T04:17:34;101452.78;;;20.65;63.00
35918;BME280;22011;59.912;30.300;2023-06-26T04:20:01;101442.56;;;20.67;63.13
35918;BME280;22011;59.912;30.300;2023-06-26T04:22:32;101444.59;;;20.78;62.41
35918;BME280;22011;59.912;30.300;2023-06-26T04:25:01;101443.47;;;20.92;62.60
35918;BME280;22011;59.912;30.300;2023-06-26T04:27:29;101441.50;;;21.06;61.27
35918;BME280;22011;59.912;30.300;2023-06-26T04:29:57;101443.09;;;21.20;60.83
35918;BME280;22011;59.912;30.300;2023-06-26T04:32:25;101438.44;;;21.34;60.55
35918;BME280;22011;59.912;30.300;2023-06-26T04:34:54;101432.69;;;21.48;60.53
35918;BME280;22011;59.912;30.300;2023-06-26T04:37:22;101437.94;;;21.68;58.94
35918;BME280;22011;59.912;30.300;2023-06-26T04:39:50;101429.69;;;21.81;59.24
35918;BME280;22011;59.912;30.300;2023-06-26T04:42:18;101429.69;;;22.00;58.22
35918;BME280;22011;59.912;30.300;2023-06-26T04:44:47;101428.16;;;22.10;57.67
35918;BME280;22011;59.912;30.300;2023-06-26T04:47:15;101431.41;;;22.19;57.15
35918;BME280;22011;59.912;30.300;2023-06-26T04:49:42;101434.50;;;22.23;58.07
35918;BME280;22011;59.912;30.300;2023-06-26T04:52:13;101427.72;;;22.32;59.00
35918;BME280;22011;59.912;30.300;2023-06-26T04:54:40;101430.34;;;22.38;56.65
35918;BME280;22011;59.912;30.300;2023-06-26T04:57:08;101426.03;;;22.49;55.86
35918;BME280;22011;59.912;30.300;2023-06-26T04:59:37;101434.72;;;22.58;56.34
35918;BME280;22011;59.912;30.300;2023-06-26T05:02:05;101425.78;;;22.69;54.62
35918;BME280;22011;59.912;30.300;2023-06-26T05:04:33;101431.16;;;22.75;54.20
35918;BME280;22011;59.912;30.300;2023-06-26T05:07:00;101428.13;;;22.83;54.40
35918;BME280;22011;59.912;30.300;2023-06-26T05:09:29;101435.22;;;22.85;54.90
35918;BME280;22011;59.912;30.300;2023-06-26T05:11:56;101432.84;;;22.88;55.27
35918;BME280;22011;59.912;30.300;2023-06-26T05:14:24;101429.22;;;22.94;53.39
35918;BME280;22011;59.912;30.300;2023-06-26T05:16:51;101419.75;;;22.85;54.40
35918;BME280;22011;59.912;30.300;2023-06-26T05:19:19;101430.41;;;22.87;53.32
35918;BME280;22011;59.912;30.300;2023-06-26T05:21:47;101430.28;;;22.93;53.02
35918;BME280;22011;59.912;30.300;2023-06-26T05:24:15;101427.69;;;22.98;53.51
35918;BME280;22011;59.912;30.300;2023-06-26T05:26:45;101432.19;;;23.04;52.91
35918;BME280;22011;59.912;30.300;2023-06-26T05:29:13;101435.97;;;23.03;52.46
35918;BME280;22011;59.912;30.300;2023-06-26T05:31:41;101429.03;;;23.07;52.14
35918;BME280;22011;59.912;30.300;2023-06-26T05:34:10;101431.84;;;23.01;53.47
35918;BME280;22011;59.912;30.300;2023-06-26T05:36:38;101431.16;;;23.05;51.87
35918;BME280;22011;59.912;30.300;2023-06-26T05:39:08;101431.97;;;23.06;51.08
35918;BME280;22011;59.912;30.300;2023-06-26T05:41:36;101435.53;;;23.06;51.21
35918;BME280;22011;59.912;30.300;2023-06-26T05:44:05;101432.81;;;23.06;51.35
35918;BME280;22011;59.912;30.300;2023-06-26T05:46:33;101435.06;;;23.09;50.82
35918;BME280;22011;59.912;30.300;2023-06-26T05:49:00;101423.13;;;23.10;50.68
35918;BME280;22011;59.912;30.300;2023-06-26T05:51:28;101432.69;;;23.13;50.92
35918;BME280;22011;59.912;30.300;2023-06-26T05:53:56;101426.94;;;23.21;51.90
35918;BME280;22011;59.912;30.300;2023-06-26T05:56:24;101427.63;;;23.16;51.19
35918;BME280;22011;59.912;30.300;2023-06-26T05:58:52;101426.25;;;23.26;50.88
35918;BME280;22011;59.912;30.300;2023-06-26T06:01:21;101418.94;;;23.38;50.44
35918;BME280;22011;59.912;30.300;2023-06-26T06:03:49;101420.13;;;23.42;50.02
35918;BME280;22011;59.912;30.300;2023-06-26T06:06:17;101419.66;;;23.45;50.71
35918;BME280;22011;59.912;30.300;2023-06-26T06:08:44;101420.25;;;23.47;51.67
35918;BME280;22011;59.912;30.300;2023-06-26T06:11:12;101417.53;;;23.47;50.41
35918;BME280;22011;59.912;30.300;2023-06-26T06:13:41;101433.38;;;23.38;50.94
35918;BME280;22011;59.912;30.300;2023-06-26T06:16:08;101429.16;;;23.54;49.78
35918;BME280;22011;59.912;30.300;2023-06-26T06:18:37;101429.59;;;23.51;50.02
35918;BME280;22011;59.912;30.300;2023-06-26T06:21:05;101429.16;;;23.54;50.01
35918;BME280;22011;59.912;30.300;2023-06-26T06:23:32;101429.19;;;23.66;49.98
35918;BME280;22011;59.912;30.300;2023-06-26T06:26:00;101426.34;;;23.84;49.14
35918;BME280;22011;59.912;30.300;2023-06-26T06:28:27;101420.78;;;23.91;49.68
35918;BME280;22011;59.912;30.300;2023-06-26T06:30:54;101432.22;;;23.93;48.33
35918;BME280;22011;59.912;30.300;2023-06-26T06:33:22;101427.41;;;23.83;48.97
35918;BME280;22011;59.912;30.300;2023-06-26T06:35:51;101433.88;;;23.94;48.95
35918;BME280;22011;59.912;30.300;2023-06-26T06:38:18;101412.13;;;23.94;48.73
35918;BME280;22011;59.912;30.300;2023-06-26T06:40:46;101424.44;;;23.85;49.37
35918;BME280;22011;59.912;30.300;2023-06-26T06:43:13;101426.47;;;23.89;49.28
35918;BME280;22011;59.912;30.300;2023-06-26T06:45:41;101426.59;;;23.83;49.39
35918;BME280;22011;59.912;30.300;2023-06-26T06:48:09;101417.06;;;23.97;49.20
35918;BME280;22011;59.912;30.300;2023-06-26T06:50:36;101410.78;;;24.08;48.29
35918;BME280;22011;59.912;30.300;2023-06-26T06:53:05;101416.94;;;24.15;49.08
35918;BME280;22011;59.912;30.300;2023-06-26T06:55:32;101413.03;;;24.11;48.39
35918;BME280;22011;59.912;30.300;2023-06-26T06:58:00;101408.28;;;24.18;48.59
35918;BME280;22011;59.912;30.300;2023-06-26T07:00:27;101412.09;;;24.17;48.03
35918;BME280;22011;59.912;30.300;2023-06-26T07:02:55;101412.56;;;24.02;48.48
35918;BME280;22011;59.912;30.300;2023-06-26T07:05:23;101424.44;;;23.85;48.86
35918;BME280;22011;59.912;30.300;2023-06-26T07:07:51;101425.28;;;23.85;48.91
35918;BME280;22011;59.912;30.300;2023-06-26T07:10:19;101416.59;;;24.00;49.91
35918;BME280;22011;59.912;30.300;2023-06-26T07:12:47;101417.41;;;24.24;48.37
35918;BME280;22011;59.912;30.300;2023-06-26T07:15:14;101419.44;;;24.28;48.31
35918;BME280;22011;59.912;30.300;2023-06-26T07:17:42;101417.78;;;24.27;49.55
35918;BME280;22011;59.912;30.300;2023-06-26T07:20:10;101413.84;;;24.35;48.76
35918;BME280;22011;59.912;30.300;2023-06-26T07:22:42;101421.09;;;24.29;48.21
35918;BME280;22011;59.912;30.300;2023-06-26T07:25:11;101427.84;;;24.15;49.48
35918;BME280;22011;59.912;30.300;2023-06-26T07:27:40;101424.88;;;24.28;48.38
35918;BME280;22011;59.912;30.300;2023-06-26T07:30:09;101425.22;;;24.43;47.35
35918;BME280;22011;59.912;30.300;2023-06-26T07:32:37;101415.13;;;24.44;47.72
35918;BME280;22011;59.912;30.300;2023-06-26T07:35:06;101420.50;;;24.67;46.90
35918;BME280;22011;59.912;30.300;2023-06-26T07:37:34;101417.94;;;24.89;45.96
35918;BME280;22011;59.912;30.300;2023-06-26T07:40:02;101421.63;;;24.83;46.14
35918;BME280;22011;59.912;30.300;2023-06-26T07:42:29;101415.44;;;24.88;46.31
35918;BME280;22011;59.912;30.300;2023-06-26T07:44:58;101422.03;;;24.75;46.78
35918;BME280;22011;59.912;30.300;2023-06-26T07:47:26;101415.09;;;24.56;46.54
35918;BME280;22011;59.912;30.300;2023-06-26T07:49:53;101414.56;;;24.70;46.74
35918;BME280;22011;59.912;30.300;2023-06-26T07:52:21;101407.31;;;24.76;46.91
35918;BME280;22011;59.912;30.300;2023-06-26T07:54:48;101413.00;;;25.03;45.07
35918;BME280;22011;59.912;30.300;2023-06-26T07:57:16;101401.78;;;25.16;45.22
35918;BME280;22011;59.912;30.300;2023-06-26T07:59:43;101405.03;;;25.47;44.02
35918;BME280;22011;59.912;30.300;2023-06-26T08:02:12;101407.88;;;25.68;44.20
35918;BME280;22011;59.912;30.300;2023-06-26T08:04:40;101407.84;;;25.52;44.09
35918;BME280;22011;59.912;30.300;2023-06-26T08:07:07;101398.59;;;25.69;42.96
35918;BME280;22011;59.912;30.300;2023-06-26T08:09:35;101396.59;;;25.82;42.56
35918;BME280;22011;59.912;30.300;2023-06-26T08:12:03;101405.75;;;25.92;43.09
35918;BME280;22011;59.912;30.300;2023-06-26T08:14:30;101399.56;;;25.63;43.05
35918;BME280;22011;59.912;30.300;2023-06-26T08:16:58;101404.69;;;25.43;44.44
35918;BME280;22011;59.912;30.300;2023-06-26T08:19:28;101410.16;;;25.60;43.66
35918;BME280;22011;59.912;30.300;2023-06-26T08:21:55;101397.66;;;25.64;43.66
35918;BME280;22011;59.912;30.300;2023-06-26T08:24:23;101397.00;;;25.90;42.75
35918;BME280;22011;59.912;30.300;2023-06-26T08:26:50;101394.94;;;26.02;42.25
35918;BME280;22011;59.912;30.300;2023-06-26T08:29:17;101402.97;;;26.09;42.19
35918;BME280;22011;59.912;30.300;2023-06-26T08:31:46;101404.28;;;26.06;42.62
35918;BME280;22011;59.912;30.300;2023-06-26T08:34:13;101400.66;;;26.01;42.43
35918;BME280;22011;59.912;30.300;2023-06-26T08:36:42;101410.72;;;26.17;42.21
35918;BME280;22011;59.912;30.300;2023-06-26T08:39:11;101404.31;;;26.28;41.03
35918;BME280;22011;59.912;30.300;2023-06-26T08:41:38;101391.31;;;26.35;41.39
35918;BME280;22011;59.912;30.300;2023-06-26T08:44:06;101401.41;;;26.57;42.13
35918;BME280;22011;59.912;30.300;2023-06-26T08:46:33;101406.66;;;26.63;41.10
35918;BME280;22011;59.912;30.300;2023-06-26T08:49:04;101399.31;;;26.64;40.22
35918;BME280;22011;59.912;30.300;2023-06-26T08:51:37;101403.13;;;26.63;40.77
35918;BME280;22011;59.912;30.300;2023-06-26T08:54:09;101406.34;;;26.60;40.80
35918;BME280;22011;59.912;30.300;2023-06-26T08:56:41;101411.56;;;26.61;41.65
35918;BME280;22011;59.912;30.300;2023-06-26T08:59:09;101407.19;;;26.60;41.41
35918;BME280;22011;59.912;30.300;2023-06-26T09:01:39;101409.59;;;26.57;41.89
35918;BME280;22011;59.912;30.300;2023-06-26T09:04:07;101405.53;;;26.59;41.72
35918;BME280;22011;59.912;30.300;2023-06-26T09:06:35;101407.00;;;26.45;40.70
35918;BME280;22011;59.912;30.300;2023-06-26T09:09:02;101398.28;;;26.26;41.38
35918;BME280;22011;59.912;30.300;2023-06-26T09:11:31;101408.25;;;26.16;41.26
35918;BME280;22011;59.912;30.300;2023-06-26T09:14:00;101400.88;;;25.94;41.60
35918;BME280;22011;59.912;30.300;2023-06-26T09:16:31;101400.22;;;25.87;42.21
35918;BME280;22011;59.912;30.300;2023-06-26T09:18:58;101401.88;;;25.88;42.05
35918;BME280;22011;59.912;30.300;2023-06-26T09:21:26;101400.47;;;26.07;41.85
35918;BME280;22011;59.912;30.300;2023-06-26T09:23:53;101395.63;;;26.31;42.08
35918;BME280;22011;59.912;30.300;2023-06-26T09:26:22;101395.63;;;26.31;42.30
35918;BME280;22011;59.912;30.300;2023-06-26T09:28:51;101391.53;;;26.12;42.41
35918;BME280;22011;59.912;30.300;2023-06-26T09:31:19;101386.09;;;25.73;43.07
35918;BME280;22011;59.912;30.300;2023-06-26T09:33:47;101388.56;;;25.58;43.09
35918;BME280;22011;59.912;30.300;2023-06-26T09:36:19;101384.19;;;25.57;44.02
35918;BME280;22011;59.912;30.300;2023-06-26T09:38:47;101381.91;;;25.66;43.19
35918;BME280;22011;59.912;30.300;2023-06-26T09:41:16;101382.94;;;26.03;42.57
35918;BME280;22011;59.912;30.300;2023-06-26T09:43:47;101381.84;;;26.43;42.33
35918;BME280;22011;59.912;30.300;2023-06-26T09:46:17;101377.56;;;26.30;42.78
35918;BME280;22011;59.912;30.300;2023-06-26T09:48:58;101383.38;;;26.34;42.26
35918;BME280;22011;59.912;30.300;2023-06-26T09:51:25;101377.75;;;26.02;42.40
35918;BME280;22011;59.912;30.300;2023-06-26T09:53:53;101378.06;;;25.84;42.89
35918;BME280;22011;59.912;30.300;2023-06-26T09:56:20;101369.13;;;25.88;42.60
35918;BME280;22011;59.912;30.300;2023-06-26T09:58:49;101377.31;;;26.10;41.85
35918;BME280;22011;59.912;30.300;2023-06-26T10:01:18;101374.47;;;26.44;41.73
35918;BME280;22011;59.912;30.300;2023-06-26T10:03:46;101371.22;;;26.47;41.16
35918;BME280;22011;59.912;30.300;2023-06-26T10:06:18;101379.06;;;26.38;41.15
35918;BME280;22011;59.912;30.300;2023-06-26T10:08:46;101359.50;;;26.29;40.72
35918;BME280;22011;59.912;30.300;2023-06-26T10:11:16;101357.19;;;26.38;40.67
35918;BME280;22011;59.912;30.300;2023-06-26T10:13:47;101354.66;;;26.31;41.38
35918;BME280;22011;59.912;30.300;2023-06-26T10:16:23;101349.09;;;26.26;42.00
35918;BME280;22011;59.912;30.300;2023-06-26T10:18:53;101361.81;;;25.94;41.47
35918;BME280;22011;59.912;30.300;2023-06-26T10:21:26;101349.28;;;25.76;41.86
35918;BME280;22011;59.912;30.300;2023-06-26T10:23:56;101353.53;;;25.50;42.61
35918;BME280;22011;59.912;30.300;2023-06-26T10:26:24;101351.13;;;25.37;42.66
35918;BME280;22011;59.912;30.300;2023-06-26T10:28:54;101351.06;;;25.32;42.89
35918;BME280;22011;59.912;30.300;2023-06-26T10:31:26;101353.28;;;25.35;42.97
35918;BME280;22011;59.912;30.300;2023-06-26T10:33:55;101350.72;;;25.28;42.81
35918;BME280;22011;59.912;30.300;2023-06-26T10:36:29;101354.94;;;25.36;43.57
35918;BME280;22011;59.912;30.300;2023-06-26T10:38:58;101356.25;;;25.33;43.75
35918;BME280;22011;59.912;30.300;2023-06-26T10:41:25;101349.56;;;25.41;43.45
35918;BME280;22011;59.912;30.300;2023-06-26T10:44:07;101356.31;;;25.55;43.92
35918;BME280;22011;59.912;30.300;2023-06-26T10:46:52;101355.06;;;25.80;43.45
35918;BME280;22011;59.912;30.300;2023-06-26T10:49:23;101342.13;;;25.92;42.05
35918;BME280;22011;59.912;30.300;2023-06-26T10:51:52;101350.84;;;25.89;41.85
35918;BME280;22011;59.912;30.300;2023-06-26T10:54:20;101352.34;;;25.80;41.93
35918;BME280;22011;59.912;30.300;2023-06-26T10:56:49;101353.53;;;25.67;42.10
35918;BME280;22011;59.912;30.300;2023-06-26T10:59:18;101343.75;;;25.54;42.67
35918;BME280;22011;59.912;30.300;2023-06-26T11:01:53;101350.06;;;25.38;43.68
35918;BME280;22011;59.912;30.300;2023-06-26T11:04:38;101348.97;;;25.39;43.77
35918;BME280;22011;59.912;30.300;2023-06-26T11:07:19;101354.13;;;25.19;45.87
35918;BME280;22011;59.912;30.300;2023-06-26T11:09:57;101353.78;;;24.98;48.27
35918;BME280;22011;59.912;30.300;2023-06-26T11:12:36;101357.28;;;24.82;50.85
35918;BME280;22011;59.912;30.300;2023-06-26T11:15:07;101343.78;;;24.59;50.53
35918;BME280;22011;59.912;30.300;2023-06-26T11:17:35;101342.91;;;24.41;52.44
35918;BME280;22011;59.912;30.300;2023-06-26T11:20:05;101336.97;;;24.44;52.05
35918;BME280;22011;59.912;30.300;2023-06-26T11:22:35;101335.59;;;24.30;51.40
35918;BME280;22011;59.912;30.300;2023-06-26T11:25:04;101316.63;;;24.35;47.94
35918;BME280;22011;59.912;30.300;2023-06-26T11:27:32;101316.97;;;24.39;49.35
35918;BME280;22011;59.912;30.300;2023-06-26T11:30:00;101306.22;;;24.32;49.73
35918;BME280;22011;59.912;30.300;2023-06-26T11:32:27;101313.81;;;24.30;48.74
35918;BME280;22011;59.912;30.300;2023-06-26T11:34:55;101324.13;;;24.28;49.93
35918;BME280;22011;59.912;30.300;2023-06-26T11:37:24;101336.09;;;24.27;50.01
35918;BME280;22011;59.912;30.300;2023-06-26T11:39:52;101332.41;;;24.22;49.74
35918;BME280;22011;59.912;30.300;2023-06-26T11:42:20;101345.84;;;24.00;51.27
35918;BME280;22011;59.912;30.300;2023-06-26T11:44:48;101348.84;;;23.75;52.21
35918;BME280;22011;59.912;30.300;2023-06-26T11:47:16;101367.28;;;23.49;53.95
35918;BME280;22011;59.912;30.300;2023-06-26T11:49:44;101342.19;;;23.24;55.32
35918;BME280;22011;59.912;30.300;2023-06-26T11:52:12;101339.66;;;22.99;55.29
35918;BME280;22011;59.912;30.300;2023-06-26T11:54:42;101341.28;;;22.89;57.15
35918;BME280;22011;59.912;30.300;2023-06-26T11:57:14;101359.50;;;22.88;57.89
35918;BME280;22011;59.912;30.300;2023-06-26T11:59:41;101356.50;;;22.78;59.09
35918;BME280;22011;59.912;30.300;2023-06-26T12:02:10;101356.38;;;22.73;58.14
35918;BME280;22011;59.912;30.300;2023-06-26T12:04:41;101352.00;;;22.72;59.03
35918;BME280;22011;59.912;30.300;2023-06-26T12:07:10;101354.34;;;22.68;58.20
35918;BME280;22011;59.912;30.300;2023-06-26T12:09:39;101356.69;;;22.65;57.90
35918;BME280;22011;59.912;30.300;2023-06-26T12:12:10;101368.16;;;22.67;59.55
35918;BME280;22011;59.912;30.300;2023-06-26T12:14:38;101385.09;;;22.50;59.54
35918;BME280;22011;59.912;30.300;2023-06-26T12:17:09;101382.00;;;22.29;61.01
35918;BME280;22011;59.912;30.300;2023-06-26T12:19:37;101381.31;;;21.97;62.52
35918;BME280;22011;59.912;30.300;2023-06-26T12:22:08;101409.78;;;21.69;67.41
35918;BME280;22011;59.912;30.300;2023-06-26T12:24:38;101433.81;;;21.03;70.81
35918;BME280;22011;59.912;30.300;2023-06-26T12:27:11;101369.16;;;20.37;73.67
35918;BME280;22011;59.912;30.300;2023-06-26T12:29:40;101381.38;;;19.88;77.39
35918;BME280;22011;59.912;30.300;2023-06-26T12:32:08;101398.69;;;19.74;78.44
35918;BME280;22011;59.912;30.300;2023-06-26T12:34:37;101413.69;;;19.70;78.46
35918;BME280;22011;59.912;30.300;2023-06-26T12:37:07;101400.75;;;19.78;77.95
35918;BME280;22011;59.912;30.300;2023-06-26T12:39:48;101394.44;;;20.11;77.07
35918;BME280;22011;59.912;30.300;2023-06-26T12:42:19;101395.06;;;20.13;74.96
35918;BME280;22011;59.912;30.300;2023-06-26T12:44:47;101387.09;;;20.24;74.58
35918;BME280;22011;59.912;30.300;2023-06-26T12:47:15;101391.06;;;20.22;72.35
35918;BME280;22011;59.912;30.300;2023-06-26T12:49:44;101388.97;;;20.31;72.12